createdAt,value
2018-05-04T18:05:24.659Z,97561.62
2018-05-04T18:07:55.640Z,97562.02
2018-05-04T18:10:26.651Z,97566.44
2018-05-04T18:12:57.678Z,97561.33
2018-05-04T18:15:28.661Z,97568.22
2018-05-04T18:17:59.677Z,97566.01
2018-05-04T18:20:30.670Z,97571.52
2018-05-04T18:23:01.717Z,97578.47
2018-05-04T18:25:32.756Z,97579.63
2018-05-04T18:28:03.786Z,97582.42
2018-05-04T18:30:34.798Z,97586.30
2018-05-04T18:33:05.838Z,97587.57
2018-05-04T18:35:36.837Z,97589.79
2018-05-04T18:38:07.851Z,97586.34
2018-05-04T18:40:38.867Z,97600.42
2018-05-04T18:43:09.905Z,97599.58
2018-05-04T18:45:40.916Z,97611.17
2018-05-04T18:48:11.955Z,97615.64
2018-05-04T18:50:42.899Z,97620.77
2018-05-04T18:53:13.875Z,97624.30
2018-05-04T18:55:44.877Z,97629.48
2018-05-04T18:58:15.924Z,97635.72
2018-05-04T19:00:46.894Z,97643.56
2018-05-04T19:03:22.740Z,97640.19
2018-05-04T19:05:55.384Z,97643.56
2018-05-04T19:08:26.400Z,97645.84
2018-05-04T19:10:57.412Z,97647.49
2018-05-04T19:13:28.440Z,97655.92
2018-05-04T19:15:59.442Z,97653.73
2018-05-04T19:18:30.518Z,97658.84
2018-05-04T19:21:01.507Z,97657.84
2018-05-04T19:23:32.534Z,97661.22
2018-05-04T19:26:03.541Z,97667.31
2018-05-04T19:28:34.571Z,97669.75
2018-05-04T19:31:05.583Z,97671.59
2018-05-04T19:33:36.565Z,97669.75
2018-05-04T19:36:07.521Z,97676.74
2018-05-04T19:38:38.507Z,97672.91
2018-05-04T19:41:09.503Z,97677.34
2018-05-04T19:43:40.563Z,97687.59
2018-05-04T19:46:11.550Z,97680.48
2018-05-04T19:48:42.525Z,97682.49
2018-05-04T19:51:13.581Z,97684.15
2018-05-04T19:53:44.614Z,97685.24
2018-05-04T19:56:15.616Z,97687.42
2018-05-04T19:58:46.730Z,97694.94
